Wetterdaten: April 2010
Datum Temp Feuchte Luftdruck Regen Wind Richtung Sonnenschein UV Solar Windben
01.04.2010 2,8 C 81 % 1010,8 hPa 1,4 l/m 8,8 km/h S 2,50 h 1,3 UV-I 185 W/m 17,7 km/h
02.04.2010 5,4 C 64 % 1014,0 hPa 0,2 l/m 14,9 km/h S 9,92 h 1,8 UV-I 371 W/m 22,9 km/h
03.04.2010 7,6 C 78 % 1009,2 hPa 0,0 l/m 12,3 km/h S-SO 4,75 h 1,4 UV-I 266 W/m 18,9 km/h
04.04.2010 6,4 C 87 % 1010,5 hPa 7,6 l/m 13,5 km/h S-SO 1,83 h 1,3 UV-I 175 W/m 25,8 km/h
05.04.2010 7,3 C 70 % 1025,5 hPa 0,6 l/m 3,7 km/h W 1,92 h 1,3 UV-I 196 W/m 12,1 km/h
06.04.2010 8,8 C 67 % 1023,1 hPa 0,0 l/m 9,8 km/h S-SO 10,42 h 2,1 UV-I 401 W/m 15,7 km/h
07.04.2010 11,9 C 59 % 1018,4 hPa 0,0 l/m 10,9 km/h SO 10,42 h 2,2 UV-I 395 W/m 17,3 km/h
08.04.2010 8,4 C 88 % 1025,4 hPa 0,0 l/m 7,4 km/h N-NW 0,42 h 1,0 UV-I 136 W/m 14,5 km/h
09.04.2010 7,6 C 82 % 1031,0 hPa 0,2 l/m 1,7 km/h N-NW 4,17 h 1,6 UV-I 236 W/m 4,8 km/h
10.04.2010 5,4 C 79 % 1029,0 hPa 0,0 l/m 4,2 km/h N-NW 2,00 h 1,2 UV-I 179 W/m 9,2 km/h
11.04.2010 4,7 C 86 % 1025,4 hPa 0,8 l/m 6,3 km/h N-NO 2,92 h 1,1 UV-I 177 W/m 13,3 km/h
12.04.2010 6,2 C 87 % 1021,0 hPa 0,4 l/m 7,1 km/h N-NO 4,50 h 1,4 UV-I 243 W/m 14,4 km/h
13.04.2010 9,3 C 69 % 1017,5 hPa 0,0 l/m 3,9 km/h N-NO 8,92 h 1,8 UV-I 341 W/m 8,8 km/h
14.04.2010 8,8 C 70 % 1017,2 hPa 0,0 l/m 4,4 km/h N-NO 7,90 h 1,9 UV-I 339 W/m 11,7 km/h
15.04.2010 9,3 C 61 % 1018,7 hPa 0,0 l/m 2,1 km/h N-NO 7,33 h 2,1 UV-I 330 W/m 6,8 km/h
16.04.2010 5,7 C 74 % 1022,7 hPa 0,0 l/m 4,1 km/h N-NW 2,08 h 1,2 UV-I 194 W/m 8,4 km/h
17.04.2010 6,6 C 69 % 1020,9 hPa 0,0 l/m 1,0 km/h S 10,83 h 2,5 UV-I 428 W/m 2,4 km/h
18.04.2010 10,7 C 59 % 1012,9 hPa 0,0 l/m 2,2 km/h S 11,58 h 2,5 UV-I 436 W/m 5,2 km/h
19.04.2010 5,7 C 77 % 1015,8 hPa 0,0 l/m 1,5 km/h N-NO 2,25 h 1,6 UV-I 212 W/m 3,6 km/h
20.04.2010 7,3 C 63 % 1014,1 hPa 0,0 l/m 9,0 km/h NW 6,67 h 2,0 UV-I 304 W/m 16,1 km/h
21.04.2010 4,5 C 70 % 1016,5 hPa 0,0 l/m 6,0 km/h NW 2,92 h 1,8 UV-I 245 W/m 22,1 km/h
22.04.2010 3,4 C 77 % 1017,4 hPa 0,0 l/m 1,4 km/h NW 7,00 h 2,0 UV-I 336 W/m 4,8 km/h
23.04.2010 7,6 C 62 % 1017,0 hPa 0,0 l/m 2,5 km/h N-NO 11,92 h 2,4 UV-I 434 W/m 7,2 km/h
24.04.2010 12,1 C 55 % 1021,0 hPa 0,0 l/m 1,8 km/h N-NO 11,50 h 2,5 UV-I 410 W/m 7,6 km/h
25.04.2010 15,9 C 50 % 1020,8 hPa 0,0 l/m 5,1 km/h S-SO 10,50 h 2,7 UV-I 414 W/m 11,3 km/h
26.04.2010 10,5 C 92 % 1023,1 hPa 10,8 l/m 3,2 km/h W 0,42 h 1,1 UV-I 123 W/m 9,7 km/h
27.04.2010 10,3 C 82 % 1027,1 hPa 0,8 l/m 2,9 km/h W 4,42 h 2,1 UV-I 275 W/m 9,2 km/h
28.04.2010 14,1 C 67 % 1022,9 hPa 0,0 l/m 3,1 km/h S 10,00 h 2,7 UV-I 402 W/m 7,2 km/h
29.04.2010 17,5 C 60 % 1010,9 hPa 0,0 l/m 5,6 km/h S 7,58 h 2,4 UV-I 329 W/m 10,9 km/h
30.04.2010 13,0 C 76 % 1008,7 hPa 0,0 l/m 6,5 km/h NW 2,17 h 1,4 UV-I 193 W/m 15,7 km/h
Min-Datum 17.04.10 18.04.10 01.04.10 9 Tage 06.04.10 - - - - 06.04.10
Min-Zeit 06:45 15:35 00:00 - 01:30 - - - - 04:40
Minimum -3,2 C 30 % 1001,8 hPa - 0,0 km/h - - - - 0,0 km/h
Max-Datum 29.04.10 09.04.10 09.04.10 26.04.10 21.04.10 - 23.04.10 29.04.10 11.04.10 03.04.10
Max-Zeit 15:30 07:05 10:55 18:35 16:35 - 19:20 13:20 15:10 17:40
Maximum 23,8 C 100 % 1031,9 hPa 10,8 l/m 29,7 km/h
NW
- 11,83 h 5,0 UV-I 1071 W/m 48,3 km/h
S-SO
Durchschnitt 8,5 C 72 % 1019,0 hPa #22,8 l/m 5,6 km/h S #181:44 h 1,8 UV-I 290 W/m 11,8 km/h

Durchschnitt Minimum Temp.3,0 C
Durchschnitt Maximum Temp.14,5 C